Terminal Aerodrome Forecast
Issued by NWS

Home | Current Version | Previous Version | Text Only | Print | Product List | Glossary On
Versions: 1 2 3 4 5 6 7 8 9 10 11 12 13 14 15 16 17 18 19 20 21
000
FTUS43 KDMX 160530
TAFOTM
TAF
KOTM 160530Z 1606/1706 12010KT P6SM FEW250
     FM160800 12012KT P6SM BKN150
     FM161500 16015G23KT P6SM BKN150
     FM161800 18025G31KT P6SM SCT050 BKN100
     FM170200 23015G22KT P6SM BKN080=

USA.gov is the U.S. government's official web portal to all federal, state and local government web resources and services.